sensor_id;sensor_type;location;lat;lon;timestamp;pressure;altitude;pressure_sealevel;temperature;humidity
47530;BME280;33272;51.922;7.730;2022-12-10T00:02:25;100004.09;;;0.46;100.00
47530;BME280;33272;51.922;7.730;2022-12-10T00:04:52;100010.59;;;0.44;100.00
47530;BME280;33272;51.922;7.730;2022-12-10T00:07:21;100011.19;;;0.41;100.00
47530;BME280;33272;51.922;7.730;2022-12-10T00:09:48;100016.25;;;0.41;100.00
47530;BME280;33272;51.922;7.730;2022-12-10T00:12:15;100014.91;;;0.45;100.00
47530;BME280;33272;51.922;7.730;2022-12-10T00:14:41;100017.75;;;0.48;100.00
47530;BME280;33272;51.922;7.730;2022-12-10T00:17:08;100016.56;;;0.53;100.00
47530;BME280;33272;51.922;7.730;2022-12-10T00:19:35;100020.44;;;0.58;100.00
47530;BME280;33272;51.922;7.730;2022-12-10T00:22:02;100021.81;;;0.63;100.00
47530;BME280;33272;51.922;7.730;2022-12-10T00:24:31;100023.91;;;0.67;100.00
47530;BME280;33272;51.922;7.730;2022-12-10T00:26:58;100029.25;;;0.71;100.00
47530;BME280;33272;51.922;7.730;2022-12-10T00:29:25;100027.03;;;0.74;100.00
47530;BME280;33272;51.922;7.730;2022-12-10T00:31:52;100026.47;;;0.76;100.00
47530;BME280;33272;51.922;7.730;2022-12-10T00:34:19;100032.53;;;0.78;100.00
47530;BME280;33272;51.922;7.730;2022-12-10T00:36:47;100035.22;;;0.80;100.00
47530;BME280;33272;51.922;7.730;2022-12-10T00:39:17;100028.69;;;0.82;100.00
47530;BME280;33272;51.922;7.730;2022-12-10T00:41:46;100031.38;;;0.83;100.00
47530;BME280;33272;51.922;7.730;2022-12-10T00:44:15;100032.72;;;0.88;100.00
47530;BME280;33272;51.922;7.730;2022-12-10T00:46:42;100028.88;;;0.92;100.00
47530;BME280;33272;51.922;7.730;2022-12-10T00:49:09;100029.03;;;0.93;100.00
47530;BME280;33272;51.922;7.730;2022-12-10T00:51:36;100020.13;;;0.97;100.00
47530;BME280;33272;51.922;7.730;2022-12-10T00:54:04;100028.44;;;0.96;100.00
47530;BME280;33272;51.922;7.730;2022-12-10T00:56:32;100026.38;;;1.01;100.00
47530;BME280;33272;51.922;7.730;2022-12-10T00:59:01;100030.41;;;1.07;100.00
47530;BME280;33272;51.922;7.730;2022-12-10T01:01:31;100030.28;;;1.14;100.00
47530;BME280;33272;51.922;7.730;2022-12-10T01:04:01;100032.66;;;1.22;100.00
47530;BME280;33272;51.922;7.730;2022-12-10T01:06:32;100032.22;;;1.26;100.00
47530;BME280;33272;51.922;7.730;2022-12-10T01:09:02;100031.03;;;1.31;100.00
47530;BME280;33272;51.922;7.730;2022-12-10T01:11:32;100037.28;;;1.34;100.00
47530;BME280;33272;51.922;7.730;2022-12-10T01:14:01;100044.09;;;1.35;100.00
47530;BME280;33272;51.922;7.730;2022-12-10T01:16:28;100034.91;;;1.36;100.00
47530;BME280;33272;51.922;7.730;2022-12-10T01:18:57;100036.69;;;1.37;100.00
47530;BME280;33272;51.922;7.730;2022-12-10T01:21:25;100036.09;;;1.39;100.00
47530;BME280;33272;51.922;7.730;2022-12-10T01:23:53;100038.03;;;1.42;100.00
47530;BME280;33272;51.922;7.730;2022-12-10T01:26:22;100042.78;;;1.48;100.00
47530;BME280;33272;51.922;7.730;2022-12-10T01:28:53;100047.50;;;1.45;100.00
47530;BME280;33272;51.922;7.730;2022-12-10T01:31:25;100048.88;;;1.50;100.00
47530;BME280;33272;51.922;7.730;2022-12-10T01:33:53;100043.06;;;1.51;100.00
47530;BME280;33272;51.922;7.730;2022-12-10T01:36:23;100056.72;;;1.53;100.00
47530;BME280;33272;51.922;7.730;2022-12-10T01:38:51;100051.38;;;1.41;100.00
47530;BME280;33272;51.922;7.730;2022-12-10T01:41:22;100050.94;;;1.45;100.00
47530;BME280;33272;51.922;7.730;2022-12-10T01:43:56;100056.31;;;1.48;100.00
47530;BME280;33272;51.922;7.730;2022-12-10T01:46:28;100055.84;;;1.52;100.00
47530;BME280;33272;51.922;7.730;2022-12-10T01:48:56;100058.69;;;1.55;100.00
47530;BME280;33272;51.922;7.730;2022-12-10T01:51:26;100055.56;;;1.58;100.00
47530;BME280;33272;51.922;7.730;2022-12-10T01:53:54;100052.88;;;1.56;100.00
47530;BME280;33272;51.922;7.730;2022-12-10T01:56:22;100063.13;;;1.49;100.00
47530;BME280;33272;51.922;7.730;2022-12-10T01:58:53;100056.00;;;1.45;100.00
47530;BME280;33272;51.922;7.730;2022-12-10T02:01:30;100064.44;;;1.46;100.00
47530;BME280;33272;51.922;7.730;2022-12-10T02:04:11;100060.59;;;1.49;100.00
47530;BME280;33272;51.922;7.730;2022-12-10T02:06:50;100061.59;;;1.51;100.00
47530;BME280;33272;51.922;7.730;2022-12-10T02:09:26;100072.00;;;1.54;100.00
47530;BME280;33272;51.922;7.730;2022-12-10T02:12:07;100070.53;;;1.56;100.00
47530;BME280;33272;51.922;7.730;2022-12-10T02:14:46;100065.78;;;1.59;100.00
47530;BME280;33272;51.922;7.730;2022-12-10T02:17:25;100076.19;;;1.62;100.00
47530;BME280;33272;51.922;7.730;2022-12-10T02:20:05;100067.13;;;1.65;100.00
47530;BME280;33272;51.922;7.730;2022-12-10T02:22:38;100068.16;;;1.67;100.00
47530;BME280;33272;51.922;7.730;2022-12-10T02:25:08;100070.84;;;1.68;100.00
47530;BME280;33272;51.922;7.730;2022-12-10T02:27:46;100065.06;;;1.69;100.00
47530;BME280;33272;51.922;7.730;2022-12-10T02:30:16;100069.50;;;1.72;100.00
47530;BME280;33272;51.922;7.730;2022-12-10T02:32:44;100066.81;;;1.70;100.00
47530;BME280;33272;51.922;7.730;2022-12-10T02:35:18;100062.22;;;1.66;100.00
47530;BME280;33272;51.922;7.730;2022-12-10T02:37:50;100068.78;;;1.64;100.00
47530;BME280;33272;51.922;7.730;2022-12-10T02:40:24;100065.66;;;1.58;100.00
47530;BME280;33272;51.922;7.730;2022-12-10T02:42:53;100061.63;;;1.43;100.00
47530;BME280;33272;51.922;7.730;2022-12-10T02:45:24;100058.50;;;1.36;100.00
47530;BME280;33272;51.922;7.730;2022-12-10T02:47:56;100057.47;;;1.43;100.00
47530;BME280;33272;51.922;7.730;2022-12-10T02:50:24;100054.50;;;1.47;100.00
47530;BME280;33272;51.922;7.730;2022-12-10T02:52:51;100064.13;;;1.51;100.00
47530;BME280;33272;51.922;7.730;2022-12-10T02:55:19;100069.47;;;1.54;100.00
47530;BME280;33272;51.922;7.730;2022-12-10T02:58:01;100060.44;;;1.56;100.00
47530;BME280;33272;51.922;7.730;2022-12-10T03:00:34;100060.75;;;1.59;100.00
47530;BME280;33272;51.922;7.730;2022-12-10T03:03:27;100057.63;;;1.62;100.00
47530;BME280;33272;51.922;7.730;2022-12-10T03:06:02;100056.31;;;1.66;100.00
47530;BME280;33272;51.922;7.730;2022-12-10T03:08:38;100052.91;;;1.65;100.00
47530;BME280;33272;51.922;7.730;2022-12-10T03:11:11;100057.78;;;1.63;100.00
47530;BME280;33272;51.922;7.730;2022-12-10T03:13:47;100050.97;;;1.62;100.00
47530;BME280;33272;51.922;7.730;2022-12-10T03:16:18;100063.72;;;1.64;100.00
47530;BME280;33272;51.922;7.730;2022-12-10T03:18:55;100055.88;;;1.61;100.00
47530;BME280;33272;51.922;7.730;2022-12-10T03:21:25;100056.75;;;1.61;100.00
47530;BME280;33272;51.922;7.730;2022-12-10T03:23:53;100064.00;;;1.58;100.00
47530;BME280;33272;51.922;7.730;2022-12-10T03:26:22;100057.03;;;1.56;100.00
47530;BME280;33272;51.922;7.730;2022-12-10T03:28:52;100062.22;;;1.57;100.00
47530;BME280;33272;51.922;7.730;2022-12-10T03:31:22;100064.44;;;1.54;100.00
47530;BME280;33272;51.922;7.730;2022-12-10T03:33:50;100059.09;;;1.51;100.00
47530;BME280;33272;51.922;7.730;2022-12-10T03:36:19;100063.72;;;1.55;100.00
47530;BME280;33272;51.922;7.730;2022-12-10T03:38:47;100054.66;;;1.57;100.00
47530;BME280;33272;51.922;7.730;2022-12-10T03:41:14;100058.09;;;1.58;100.00
47530;BME280;33272;51.922;7.730;2022-12-10T03:43:52;100055.28;;;1.55;100.00
47530;BME280;33272;51.922;7.730;2022-12-10T03:46:19;100058.81;;;1.57;100.00
47530;BME280;33272;51.922;7.730;2022-12-10T03:48:48;100052.44;;;1.60;100.00
47530;BME280;33272;51.922;7.730;2022-12-10T03:51:15;100060.00;;;1.60;100.00
47530;BME280;33272;51.922;7.730;2022-12-10T03:53:42;100056.88;;;1.63;100.00
47530;BME280;33272;51.922;7.730;2022-12-10T03:56:09;100064.75;;;1.66;100.00
47530;BME280;33272;51.922;7.730;2022-12-10T03:58:36;100061.66;;;1.69;100.00
47530;BME280;33272;51.922;7.730;2022-12-10T04:01:03;100067.75;;;1.71;100.00
47530;BME280;33272;51.922;7.730;2022-12-10T04:03:33;100064.31;;;1.70;100.00
47530;BME280;33272;51.922;7.730;2022-12-10T04:06:04;100069.22;;;1.69;100.00
47530;BME280;33272;51.922;7.730;2022-12-10T04:08:31;100064.16;;;1.69;100.00
47530;BME280;33272;51.922;7.730;2022-12-10T04:11:03;100067.75;;;1.71;100.00
47530;BME280;33272;51.922;7.730;2022-12-10T04:13:32;100070.25;;;1.71;100.00
47530;BME280;33272;51.922;7.730;2022-12-10T04:16:17;100078.56;;;1.70;100.00
47530;BME280;33272;51.922;7.730;2022-12-10T04:18:53;100075.16;;;1.69;100.00
47530;BME280;33272;51.922;7.730;2022-12-10T04:21:22;100086.88;;;1.69;100.00
47530;BME280;33272;51.922;7.730;2022-12-10T04:24:08;100085.81;;;1.67;100.00
47530;BME280;33272;51.922;7.730;2022-12-10T04:26:53;100083.91;;;1.64;100.00
47530;BME280;33272;51.922;7.730;2022-12-10T04:29:21;100085.22;;;1.60;100.00
47530;BME280;33272;51.922;7.730;2022-12-10T04:31:49;100076.44;;;1.39;100.00
47530;BME280;33272;51.922;7.730;2022-12-10T04:34:16;100080.91;;;1.42;100.00
47530;BME280;33272;51.922;7.730;2022-12-10T04:36:45;100076.28;;;1.38;100.00
47530;BME280;33272;51.922;7.730;2022-12-10T04:39:13;100077.16;;;1.38;100.00
47530;BME280;33272;51.922;7.730;2022-12-10T04:41:43;100078.09;;;1.39;100.00
47530;BME280;33272;51.922;7.730;2022-12-10T04:44:11;100078.97;;;1.39;100.00
47530;BME280;33272;51.922;7.730;2022-12-10T04:46:38;100080.75;;;1.41;100.00
47530;BME280;33272;51.922;7.730;2022-12-10T04:49:06;100081.94;;;1.44;100.00
47530;BME280;33272;51.922;7.730;2022-12-10T04:51:34;100078.25;;;1.49;100.00
47530;BME280;33272;51.922;7.730;2022-12-10T04:54:03;100078.84;;;1.55;100.00
47530;BME280;33272;51.922;7.730;2022-12-10T04:56:30;100081.50;;;1.57;100.00
47530;BME280;33272;51.922;7.730;2022-12-10T04:58:58;100081.50;;;1.57;100.00
47530;BME280;33272;51.922;7.730;2022-12-10T05:01:26;100082.56;;;1.59;100.00
47530;BME280;33272;51.922;7.730;2022-12-10T05:03:54;100084.19;;;1.58;100.00
47530;BME280;33272;51.922;7.730;2022-12-10T05:06:21;100080.16;;;1.60;100.00
47530;BME280;33272;51.922;7.730;2022-12-10T05:08:48;100078.56;;;1.61;100.00
47530;BME280;33272;51.922;7.730;2022-12-10T05:11:19;100081.97;;;1.61;100.00
47530;BME280;33272;51.922;7.730;2022-12-10T05:13:47;100080.91;;;1.51;100.00
47530;BME280;33272;51.922;7.730;2022-12-10T05:16:16;100079.44;;;1.53;100.00
47530;BME280;33272;51.922;7.730;2022-12-10T05:18:44;100079.56;;;1.54;100.00
47530;BME280;33272;51.922;7.730;2022-12-10T05:21:13;100076.31;;;1.55;100.00
47530;BME280;33272;51.922;7.730;2022-12-10T05:23:44;100077.03;;;1.54;100.00
47530;BME280;33272;51.922;7.730;2022-12-10T05:26:14;100083.59;;;1.52;100.00
47530;BME280;33272;51.922;7.730;2022-12-10T05:28:46;100080.00;;;1.50;100.00
47530;BME280;33272;51.922;7.730;2022-12-10T05:31:15;100085.94;;;1.51;100.00
47530;BME280;33272;51.922;7.730;2022-12-10T05:33:42;100088.47;;;1.51;100.00
47530;BME280;33272;51.922;7.730;2022-12-10T05:36:12;100091.59;;;1.48;100.00
47530;BME280;33272;51.922;7.730;2022-12-10T05:38:40;100094.13;;;1.48;100.00
47530;BME280;33272;51.922;7.730;2022-12-10T05:41:11;100090.84;;;1.49;100.00
47530;BME280;33272;51.922;7.730;2022-12-10T05:43:38;100092.75;;;1.43;100.00
47530;BME280;33272;51.922;7.730;2022-12-10T05:46:10;100090.78;;;1.32;100.00
47530;BME280;33272;51.922;7.730;2022-12-10T05:48:38;100089.47;;;1.35;100.00
47530;BME280;33272;51.922;7.730;2022-12-10T05:51:05;100085.34;;;1.36;100.00
47530;BME280;33272;51.922;7.730;2022-12-10T05:53:33;100091.56;;;1.39;100.00
47530;BME280;33272;51.922;7.730;2022-12-10T05:56:01;100094.22;;;1.41;100.00
47530;BME280;33272;51.922;7.730;2022-12-10T05:58:28;100086.09;;;1.44;100.00
47530;BME280;33272;51.922;7.730;2022-12-10T06:00:56;100096.16;;;1.44;100.00
47530;BME280;33272;51.922;7.730;2022-12-10T06:03:26;100097.81;;;1.43;100.00
47530;BME280;33272;51.922;7.730;2022-12-10T06:05:54;100099.56;;;1.44;100.00
47530;BME280;33272;51.922;7.730;2022-12-10T06:08:22;100098.84;;;1.45;100.00
47530;BME280;33272;51.922;7.730;2022-12-10T06:10:49;100103.91;;;1.45;100.00
47530;BME280;33272;51.922;7.730;2022-12-10T06:13:16;100101.38;;;1.45;100.00
47530;BME280;33272;51.922;7.730;2022-12-10T06:15:43;100103.16;;;1.46;100.00
47530;BME280;33272;51.922;7.730;2022-12-10T06:18:10;100099.56;;;1.44;100.00
47530;BME280;33272;51.922;7.730;2022-12-10T06:20:39;100102.25;;;1.37;100.00
47530;BME280;33272;51.922;7.730;2022-12-10T06:23:07;100109.63;;;1.35;100.00
47530;BME280;33272;51.922;7.730;2022-12-10T06:25:37;100104.28;;;1.32;100.00
47530;BME280;33272;51.922;7.730;2022-12-10T06:28:04;100104.91;;;1.30;100.00
47530;BME280;33272;51.922;7.730;2022-12-10T06:30:31;100104.59;;;1.27;100.00
47530;BME280;33272;51.922;7.730;2022-12-10T06:32:58;100099.25;;;1.24;100.00
47530;BME280;33272;51.922;7.730;2022-12-10T06:35:25;100100.41;;;1.19;100.00
47530;BME280;33272;51.922;7.730;2022-12-10T06:37:54;100104.38;;;1.16;100.00
47530;BME280;33272;51.922;7.730;2022-12-10T06:40:21;100106.91;;;1.16;100.00
47530;BME280;33272;51.922;7.730;2022-12-10T06:42:50;100106.59;;;1.13;100.00
47530;BME280;33272;51.922;7.730;2022-12-10T06:45:18;100113.28;;;1.13;100.00
47530;BME280;33272;51.922;7.730;2022-12-10T06:47:45;100117.28;;;1.11;100.00
47530;BME280;33272;51.922;7.730;2022-12-10T06:50:12;100114.78;;;1.11;100.00
47530;BME280;33272;51.922;7.730;2022-12-10T06:52:39;100114.78;;;1.11;100.00
47530;BME280;33272;51.922;7.730;2022-12-10T06:55:08;100116.41;;;1.10;100.00
47530;BME280;33272;51.922;7.730;2022-12-10T06:57:35;100118.91;;;1.10;100.00
47530;BME280;33272;51.922;7.730;2022-12-10T07:00:03;100123.97;;;1.10;100.00
47530;BME280;33272;51.922;7.730;2022-12-10T07:02:30;100128.09;;;1.10;100.00
47530;BME280;33272;51.922;7.730;2022-12-10T07:04:58;100124.09;;;1.12;100.00
47530;BME280;33272;51.922;7.730;2022-12-10T07:07:25;100134.19;;;1.12;100.00
47530;BME280;33272;51.922;7.730;2022-12-10T07:09:52;100128.25;;;1.11;100.00
47530;BME280;33272;51.922;7.730;2022-12-10T07:12:20;100130.91;;;1.13;100.00
47530;BME280;33272;51.922;7.730;2022-12-10T07:14:47;100137.59;;;1.12;100.00
47530;BME280;33272;51.922;7.730;2022-12-10T07:17:14;100132.41;;;1.11;100.00
47530;BME280;33272;51.922;7.730;2022-12-10T07:19:41;100135.81;;;1.11;100.00
47530;BME280;33272;51.922;7.730;2022-12-10T07:22:08;100132.41;;;1.11;100.00
47530;BME280;33272;51.922;7.730;2022-12-10T07:24:35;100140.69;;;1.10;100.00
47530;BME280;33272;51.922;7.730;2022-12-10T07:27:04;100139.78;;;1.09;100.00
47530;BME280;33272;51.922;7.730;2022-12-10T07:29:33;100142.88;;;1.07;100.00
47530;BME280;33272;51.922;7.730;2022-12-10T07:32:01;100146.03;;;1.04;100.00
47530;BME280;33272;51.922;7.730;2022-12-10T07:34:28;100146.91;;;1.05;100.00
47530;BME280;33272;51.922;7.730;2022-12-10T07:36:55;100145.41;;;0.98;100.00
47530;BME280;33272;51.922;7.730;2022-12-10T07:39:22;100150.13;;;0.95;100.00
47530;BME280;33272;51.922;7.730;2022-12-10T07:41:50;100154.84;;;0.92;100.00
47530;BME280;33272;51.922;7.730;2022-12-10T07:44:18;100151.44;;;0.91;100.00
47530;BME280;33272;51.922;7.730;2022-12-10T07:46:49;100157.19;;;0.90;100.00
47530;BME280;33272;51.922;7.730;2022-12-10T07:49:16;100156.16;;;0.88;100.00
47530;BME280;33272;51.922;7.730;2022-12-10T07:51:44;100152.00;;;0.89;100.00
47530;BME280;33272;51.922;7.730;2022-12-10T07:54:11;100161.34;;;0.90;100.00
47530;BME280;33272;51.922;7.730;2022-12-10T07:56:38;100157.06;;;0.89;100.00
47530;BME280;33272;51.922;7.730;2022-12-10T07:59:05;100159.25;;;0.86;100.00
47530;BME280;33272;51.922;7.730;2022-12-10T08:01:33;100161.53;;;0.76;100.00
47530;BME280;33272;51.922;7.730;2022-12-10T08:04:01;100165.50;;;0.65;100.00
47530;BME280;33272;51.922;7.730;2022-12-10T08:06:29;100162.59;;;0.53;100.00
47530;BME280;33272;51.922;7.730;2022-12-10T08:08:58;100171.56;;;0.42;100.00
47530;BME280;33272;51.922;7.730;2022-12-10T08:11:26;100169.72;;;0.33;100.00
47530;BME280;33272;51.922;7.730;2022-12-10T08:13:54;100173.78;;;0.23;100.00
47530;BME280;33272;51.922;7.730;2022-12-10T08:16:23;100173.88;;;0.16;100.00
47530;BME280;33272;51.922;7.730;2022-12-10T08:18:52;100177.38;;;0.10;100.00
47530;BME280;33272;51.922;7.730;2022-12-10T08:21:23;100181.75;;;0.04;100.00
47530;BME280;33272;51.922;7.730;2022-12-10T08:23:50;100173.69;;;-0.01;100.00
47530;BME280;33272;51.922;7.730;2022-12-10T08:26:20;100179.88;;;-0.06;100.00
47530;BME280;33272;51.922;7.730;2022-12-10T08:28:49;100187.81;;;-0.10;100.00
47530;BME280;33272;51.922;7.730;2022-12-10T08:31:18;100190.91;;;-0.13;100.00
47530;BME280;33272;51.922;7.730;2022-12-10T08:33:45;100189.28;;;-0.12;100.00
47530;BME280;33272;51.922;7.730;2022-12-10T08:36:14;100192.53;;;-0.13;100.00
47530;BME280;33272;51.922;7.730;2022-12-10T08:38:44;100188.22;;;-0.14;100.00
47530;BME280;33272;51.922;7.730;2022-12-10T08:41:14;100196.66;;;-0.14;100.00
47530;BME280;33272;51.922;7.730;2022-12-10T08:43:42;100203.22;;;-0.07;100.00
47530;BME280;33272;51.922;7.730;2022-12-10T08:46:10;100201.38;;;-0.01;100.00
47530;BME280;33272;51.922;7.730;2022-12-10T08:48:38;100204.53;;;0.05;100.00
47530;BME280;33272;51.922;7.730;2022-12-10T08:51:07;100210.41;;;0.13;100.00
47530;BME280;33272;51.922;7.730;2022-12-10T08:53:34;100212.97;;;0.21;100.00
47530;BME280;33272;51.922;7.730;2022-12-10T08:56:03;100213.25;;;0.32;100.00
47530;BME280;33272;51.922;7.730;2022-12-10T08:58:30;100206.47;;;0.39;100.00
47530;BME280;33272;51.922;7.730;2022-12-10T09:00:57;100212.16;;;0.45;100.00
47530;BME280;33272;51.922;7.730;2022-12-10T09:03:27;100217.66;;;0.50;100.00
47530;BME280;33272;51.922;7.730;2022-12-10T09:05:53;100221.69;;;0.57;100.00
47530;BME280;33272;51.922;7.730;2022-12-10T09:08:20;100215.84;;;0.65;100.00
47530;BME280;33272;51.922;7.730;2022-12-10T09:10:47;100223.63;;;0.75;100.00
47530;BME280;33272;51.922;7.730;2022-12-10T09:13:16;100226.97;;;0.83;100.00
47530;BME280;33272;51.922;7.730;2022-12-10T09:15:50;100225.97;;;0.89;100.00
47530;BME280;33272;51.922;7.730;2022-12-10T09:18:18;100229.81;;;0.95;100.00
47530;BME280;33272;51.922;7.730;2022-12-10T09:20:45;100242.91;;;0.99;100.00
47530;BME280;33272;51.922;7.730;2022-12-10T09:23:12;100242.47;;;1.03;100.00
47530;BME280;33272;51.922;7.730;2022-12-10T09:25:39;100238.66;;;1.07;100.00
47530;BME280;33272;51.922;7.730;2022-12-10T09:28:06;100251.16;;;1.14;100.00
47530;BME280;33272;51.922;7.730;2022-12-10T09:30:35;100249.41;;;1.22;100.00
47530;BME280;33272;51.922;7.730;2022-12-10T09:33:02;100246.38;;;1.33;100.00
47530;BME280;33272;51.922;7.730;2022-12-10T09:35:29;100244.63;;;1.41;100.00
47530;BME280;33272;51.922;7.730;2022-12-10T09:37:56;100255.66;;;1.50;100.00
47530;BME280;33272;51.922;7.730;2022-12-10T09:40:32;100247.94;;;1.57;100.00
47530;BME280;33272;51.922;7.730;2022-12-10T09:43:06;100249.31;;;1.62;100.00
47530;BME280;33272;51.922;7.730;2022-12-10T09:45:46;100245.03;;;1.61;100.00
47530;BME280;33272;51.922;7.730;2022-12-10T09:48:23;100245.44;;;1.57;100.00
47530;BME280;33272;51.922;7.730;2022-12-10T09:50:58;100243.03;;;1.50;100.00
47530;BME280;33272;51.922;7.730;2022-12-10T09:53:31;100247.75;;;1.47;100.00
47530;BME280;33272;51.922;7.730;2022-12-10T09:55:59;100239.56;;;1.41;100.00
47530;BME280;33272;51.922;7.730;2022-12-10T09:58:27;100237.50;;;1.36;100.00
47530;BME280;33272;51.922;7.730;2022-12-10T10:00:58;100243.41;;;1.37;100.00
47530;BME280;33272;51.922;7.730;2022-12-10T10:03:25;100238.38;;;1.37;100.00
47530;BME280;33272;51.922;7.730;2022-12-10T10:05:54;100236.75;;;1.37;100.00
47530;BME280;33272;51.922;7.730;2022-12-10T10:08:29;100239.25;;;1.37;100.00
47530;BME280;33272;51.922;7.730;2022-12-10T10:10:59;100233.03;;;1.34;100.00
47530;BME280;33272;51.922;7.730;2022-12-10T10:13:34;100225.28;;;1.32;100.00
47530;BME280;33272;51.922;7.730;2022-12-10T10:16:19;100231.66;;;1.29;100.00
47530;BME280;33272;51.922;7.730;2022-12-10T10:18:52;100235.53;;;1.34;100.00
47530;BME280;33272;51.922;7.730;2022-12-10T10:21:23;100229.03;;;1.36;100.00
47530;BME280;33272;51.922;7.730;2022-12-10T10:23:51;100236.28;;;1.33;100.00
47530;BME280;33272;51.922;7.730;2022-12-10T10:26:18;100232.28;;;1.35;100.00
47530;BME280;33272;51.922;7.730;2022-12-10T10:28:45;100232.59;;;1.38;100.00
47530;BME280;33272;51.922;7.730;2022-12-10T10:31:19;100235.41;;;1.41;100.00
47530;BME280;33272;51.922;7.730;2022-12-10T10:33:52;100229.53;;;1.49;100.00
47530;BME280;33272;51.922;7.730;2022-12-10T10:36:27;100232.19;;;1.51;100.00
47530;BME280;33272;51.922;7.730;2022-12-10T10:38:55;100242.59;;;1.54;100.00
47530;BME280;33272;51.922;7.730;2022-12-10T10:41:24;100236.84;;;1.55;100.00
47530;BME280;33272;51.922;7.730;2022-12-10T10:43:59;100232.25;;;1.59;100.00
47530;BME280;33272;51.922;7.730;2022-12-10T10:46:35;100235.97;;;1.63;100.00
47530;BME280;33272;51.922;7.730;2022-12-10T10:49:19;100237.59;;;1.62;100.00
47530;BME280;33272;51.922;7.730;2022-12-10T10:51:48;100240.59;;;1.76;100.00
47530;BME280;33272;51.922;7.730;2022-12-10T10:54:33;100243.28;;;1.77;100.00
47530;BME280;33272;51.922;7.730;2022-12-10T10:57:04;100238.66;;;1.73;100.00
47530;BME280;33272;51.922;7.730;2022-12-10T10:59:35;100241.22;;;1.82;100.00
47530;BME280;33272;51.922;7.730;2022-12-10T11:02:19;100240.38;;;1.90;100.00
47530;BME280;33272;51.922;7.730;2022-12-10T11:04:49;100246.94;;;2.05;100.00
47530;BME280;33272;51.922;7.730;2022-12-10T11:07:23;100243.53;;;2.14;100.00
47530;BME280;33272;51.922;7.730;2022-12-10T11:09:53;100246.06;;;2.05;100.00
47530;BME280;33272;51.922;7.730;2022-12-10T11:12:30;100240.69;;;2.11;100.00
47530;BME280;33272;51.922;7.730;2022-12-10T11:14:59;100242.06;;;2.16;100.00
47530;BME280;33272;51.922;7.730;2022-12-10T11:17:28;100234.31;;;2.23;100.00
47530;BME280;33272;51.922;7.730;2022-12-10T11:19:59;100230.19;;;2.32;100.00
47530;BME280;33272;51.922;7.730;2022-12-10T11:22:29;100237.03;;;2.42;100.00
47530;BME280;33272;51.922;7.730;2022-12-10T11:24:57;100238.22;;;2.45;100.00
47530;BME280;33272;51.922;7.730;2022-12-10T11:27:39;100235.41;;;2.51;100.00
47530;BME280;33272;51.922;7.730;2022-12-10T11:30:13;100235.84;;;2.55;100.00
47530;BME280;33272;51.922;7.730;2022-12-10T11:33:20;100234.34;;;2.49;100.00
47530;BME280;33272;51.922;7.730;2022-12-10T11:35:59;100237.75;;;2.58;100.00
47530;BME280;33272;51.922;7.730;2022-12-10T11:38:40;100238.66;;;2.67;100.00
47530;BME280;33272;51.922;7.730;2022-12-10T11:41:18;100238.94;;;2.79;100.00
47530;BME280;33272;51.922;7.730;2022-12-10T11:47:26;100236.56;;;2.89;100.00
47530;BME280;33272;51.922;7.730;2022-12-10T11:50:09;100243.38;;;2.99;100.00
47530;BME280;33272;51.922;7.730;2022-12-10T11:53:13;100244.00;;;2.96;100.00
47530;BME280;33272;51.922;7.730;2022-12-10T11:55:51;100239.25;;;2.73;100.00
47530;BME280;33272;51.922;7.730;2022-12-10T11:58:43;100248.59;;;2.48;100.00
47530;BME280;33272;51.922;7.730;2022-12-10T12:01:25;100247.41;;;2.45;100.00
47530;BME280;33272;51.922;7.730;2022-12-10T12:04:10;100253.22;;;2.35;100.00
47530;BME280;33272;51.922;7.730;2022-12-10T12:07:08;100254.09;;;2.36;100.00
47530;BME280;33272;51.922;7.730;2022-12-10T12:09:54;100259.16;;;2.44;100.00
47530;BME280;33272;51.922;7.730;2022-12-10T12:12:35;100254.41;;;2.39;100.00
47530;BME280;33272;51.922;7.730;2022-12-10T12:15:17;100248.00;;;2.42;100.00
47530;BME280;33272;51.922;7.730;2022-12-10T12:17:50;100256.06;;;2.47;100.00
47530;BME280;33272;51.922;7.730;2022-12-10T12:20:23;100244.13;;;2.46;100.00
47530;BME280;33272;51.922;7.730;2022-12-10T12:22:58;100250.22;;;2.39;100.00
47530;BME280;33272;51.922;7.730;2022-12-10T12:25:34;100238.81;;;2.34;100.00
47530;BME280;33272;51.922;7.730;2022-12-10T12:28:08;100234.19;;;2.39;100.00
47530;BME280;33272;51.922;7.730;2022-12-10T12:30:39;100234.97;;;2.46;100.00
47530;BME280;33272;51.922;7.730;2022-12-10T12:33:13;100231.81;;;2.49;100.00
47530;BME280;33272;51.922;7.730;2022-12-10T12:35:47;100238.50;;;2.48;100.00
47530;BME280;33272;51.922;7.730;2022-12-10T12:38:30;100227.50;;;2.39;100.00
47530;BME280;33272;51.922;7.730;2022-12-10T12:41:03;100232.13;;;2.52;100.00
47530;BME280;33272;51.922;7.730;2022-12-10T12:43:40;100230.50;;;2.44;100.00
47530;BME280;33272;51.922;7.730;2022-12-10T12:46:15;100246.38;;;2.51;100.00
47530;BME280;33272;51.922;7.730;2022-12-10T12:48:52;100249.38;;;2.47;100.00
47530;BME280;33272;51.922;7.730;2022-12-10T12:51:27;100245.94;;;2.47;100.00
47530;BME280;33272;51.922;7.730;2022-12-10T12:53:57;100254.25;;;2.46;100.00
47530;BME280;33272;51.922;7.730;2022-12-10T12:56:39;100249.03;;;2.36;100.00
47530;BME280;33272;51.922;7.730;2022-12-10T12:59:26;100254.88;;;2.43;100.00
47530;BME280;33272;51.922;7.730;2022-12-10T13:02:02;100252.31;;;2.35;100.00
47530;BME280;33272;51.922;7.730;2022-12-10T13:04:34;100259.13;;;2.27;100.00
47530;BME280;33272;51.922;7.730;2022-12-10T13:07:33;100253.63;;;2.14;100.00
47530;BME280;33272;51.922;7.730;2022-12-10T13:10:25;100252.25;;;2.00;100.00
47530;BME280;33272;51.922;7.730;2022-12-10T13:13:17;100261.56;;;1.83;100.00
47530;BME280;33272;51.922;7.730;2022-12-10T13:15:48;100264.06;;;1.75;100.00